Time;durP1;ratioP1;P1;durP2;ratioP2;P2;SDS_P1;SDS_P2;PMS_P1;PMS_P2;Temp;Humidity;BMP_temperature;BMP_pressure;BME280_temperature;BME280_humidity;BME280_pressure;Samples;Min_cycle;Max_cycle;Signal;HPM_P1;HPM_P2
2021/12/27 00:00:29;;;;;;;;;;;4.30;99.90;;;;;;5034933;28;19960;-75
2021/12/27 00:03:02;;;;;;;;;;;4.30;99.90;;;;;;5034865;28;20011;-75
2021/12/27 00:05:34;;;;;;;;;;;4.30;99.90;;;;;;5034280;28;19932;-75
2021/12/27 00:08:01;;;;;;;;;;;4.30;99.90;;;;;;5034645;28;20349;-75
2021/12/27 00:10:29;;;;;;;;;;;4.40;99.90;;;;;;5017960;28;19968;-75
2021/12/27 00:13:02;;;;;;;;;;;4.30;99.90;;;;;;5019177;28;19920;-75
2021/12/27 00:15:34;;;;;;;;;;;4.30;99.90;;;;;;5035369;28;20369;-75
2021/12/27 00:18:01;;;;;;;;;;;4.30;99.90;;;;;;5019087;28;19921;-75
2021/12/27 00:20:32;;;;;;;;;;;4.30;99.90;;;;;;5053505;28;19921;-75
2021/12/27 00:22:59;;;;;;;;;;;4.30;99.90;;;;;;5035019;28;20019;-75
2021/12/27 00:25:26;;;;;;;;;;;4.30;99.90;;;;;;5034912;28;20333;-75
2021/12/27 00:27:53;;;;;;;;;;;4.30;99.90;;;;;;5018996;28;20015;-75
2021/12/27 00:30:25;;;;;;;;;;;4.30;99.90;;;;;;5051778;28;20019;-75
2021/12/27 00:32:56;;;;;;;;;;;4.30;99.90;;;;;;5019674;28;20385;-75
2021/12/27 00:35:26;;;;;;;;;;;4.40;99.90;;;;;;5035486;28;19928;-75
2021/12/27 00:37:52;;;;;;;;;;;4.40;99.90;;;;;;5035751;28;20387;-75
2021/12/27 00:40:25;;;;;;;;;;;4.30;99.90;;;;;;5035059;28;19924;-75
2021/12/27 00:42:56;;;;;;;;;;;4.40;99.90;;;;;;5035621;28;20023;-75
2021/12/27 00:45:28;;;;;;;;;;;4.40;99.90;;;;;;5035769;28;19921;-75
2021/12/27 00:47:59;;;;;;;;;;;4.40;99.90;;;;;;5051567;28;19921;-75
2021/12/27 00:50:27;;;;;;;;;;;4.30;99.90;;;;;;5018050;28;20305;-75
2021/12/27 00:52:53;;;;;;;;;;;4.30;99.90;;;;;;5034555;28;20011;-75
2021/12/27 00:55:21;;;;;;;;;;;4.30;99.90;;;;;;5034856;28;20365;-75
2021/12/27 00:57:48;;;;;;;;;;;4.30;99.90;;;;;;5034119;28;19920;-75
2021/12/27 01:00:16;;;;;;;;;;;4.30;99.90;;;;;;5034305;28;20019;-75
2021/12/27 01:02:43;;;;;;;;;;;4.30;99.90;;;;;;5034117;28;20023;-75
2021/12/27 01:05:12;;;;;;;;;;;4.30;99.90;;;;;;5052919;28;19940;-75
2021/12/27 01:07:39;;;;;;;;;;;4.30;99.90;;;;;;5050501;28;20019;-75
2021/12/27 01:15:34;;;;;;;;;;;4.20;99.90;;;;;;5052203;28;19970;-75
2021/12/27 01:18:03;;;;;;;;;;;4.10;99.90;;;;;;5034280;28;19921;-75
2021/12/27 01:20:29;;;;;;;;;;;4.10;99.90;;;;;;5050215;28;19967;-75
2021/12/27 01:23:01;;;;;;;;;;;4.10;99.90;;;;;;5038948;28;19920;-75
2021/12/27 01:25:33;;;;;;;;;;;4.10;99.90;;;;;;5034882;28;19921;-75
2021/12/27 01:28:05;;;;;;;;;;;4.10;99.90;;;;;;5019485;28;19920;-76
2021/12/27 01:30:37;;;;;;;;;;;4.10;99.90;;;;;;5035473;28;19943;-75
2021/12/27 01:33:09;;;;;;;;;;;4.00;99.90;;;;;;5052154;28;20300;-75
2021/12/27 01:35:36;;;;;;;;;;;4.00;99.90;;;;;;5018488;28;20452;-75
2021/12/27 01:38:03;;;;;;;;;;;4.00;99.90;;;;;;5034791;28;20015;-75
2021/12/27 01:40:35;;;;;;;;;;;4.00;99.90;;;;;;5034970;28;20015;-75
2021/12/27 01:43:08;;;;;;;;;;;4.00;99.90;;;;;;5034563;28;19927;-75
2021/12/27 01:45:42;;;;;;;;;;;4.10;99.90;;;;;;5034511;28;19927;-75
2021/12/27 01:48:17;;;;;;;;;;;4.00;99.90;;;;;;5051061;28;20011;-75
2021/12/27 01:50:49;;;;;;;;;;;4.10;99.90;;;;;;5034489;28;20312;-75
2021/12/27 01:53:17;;;;;;;;;;;4.10;99.90;;;;;;5034338;28;19952;-75
2021/12/27 01:55:44;;;;;;;;;;;4.10;99.90;;;;;;5034314;28;19920;-75
2021/12/27 01:58:11;;;;;;;;;;;4.10;99.90;;;;;;5034521;28;20015;-75
2021/12/27 02:00:40;;;;;;;;;;;4.10;99.90;;;;;;5018542;28;20467;-75
2021/12/27 02:03:07;;;;;;;;;;;4.10;99.90;;;;;;5038188;28;19928;-75
2021/12/27 02:05:34;;;;;;;;;;;4.10;99.90;;;;;;5037790;28;19931;-75
2021/12/27 02:08:06;;;;;;;;;;;4.10;99.90;;;;;;5056184;28;20027;-75
2021/12/27 02:10:38;;;;;;;;;;;4.10;99.90;;;;;;5038231;28;19931;-75
2021/12/27 02:13:11;;;;;;;;;;;4.10;99.90;;;;;;5056219;28;19920;-75
2021/12/27 02:15:43;;;;;;;;;;;4.00;99.90;;;;;;5037912;28;19932;-75
2021/12/27 02:18:10;;;;;;;;;;;4.00;99.90;;;;;;5037261;28;20023;-75
2021/12/27 02:20:38;;;;;;;;;;;4.00;99.90;;;;;;5037227;28;20007;-75
2021/12/27 02:23:15;;;;;;;;;;;3.90;99.90;;;;;;5037893;28;20328;-75
2021/12/27 02:25:43;;;;;;;;;;;3.90;99.90;;;;;;5037100;28;19948;-75
2021/12/27 02:28:10;;;;;;;;;;;3.90;99.90;;;;;;5036746;28;20011;-75
2021/12/27 02:30:38;;;;;;;;;;;3.90;99.90;;;;;;5021101;28;19927;-75
2021/12/27 02:33:05;;;;;;;;;;;3.90;99.90;;;;;;5037276;28;20019;-75
2021/12/27 02:35:39;;;;;;;;;;;3.90;99.90;;;;;;5037313;28;19931;-75
2021/12/27 02:38:17;;;;;;;;;;;3.90;99.90;;;;;;5021270;28;20027;-75
2021/12/27 02:40:51;;;;;;;;;;;3.90;99.90;;;;;;5037146;28;19920;-75
2021/12/27 02:43:23;;;;;;;;;;;3.90;99.90;;;;;;5037267;28;19920;-75
2021/12/27 02:45:57;;;;;;;;;;;3.90;99.90;;;;;;5038539;28;19927;-75
2021/12/27 02:48:38;;;;;;;;;;;3.90;99.90;;;;;;5037783;28;20036;-75
2021/12/27 02:51:09;;;;;;;;;;;3.90;99.90;;;;;;5037619;28;19921;-75
2021/12/27 02:53:36;;;;;;;;;;;3.90;99.90;;;;;;5021128;28;20019;-75
2021/12/27 02:56:04;;;;;;;;;;;3.90;99.90;;;;;;5037498;28;20215;-75
2021/12/27 02:58:30;;;;;;;;;;;3.90;99.90;;;;;;5037278;28;20023;-75
2021/12/27 03:01:07;;;;;;;;;;;3.90;99.90;;;;;;5021365;28;19967;-75
2021/12/27 03:03:34;;;;;;;;;;;3.90;99.90;;;;;;5036764;28;20022;-75
2021/12/27 03:06:06;;;;;;;;;;;3.90;99.90;;;;;;5036962;28;19927;-75
2021/12/27 03:08:38;;;;;;;;;;;3.90;99.90;;;;;;5036826;28;19928;-75
2021/12/27 03:11:11;;;;;;;;;;;3.90;99.90;;;;;;5037726;28;19927;-75
2021/12/27 03:13:47;;;;;;;;;;;3.90;99.90;;;;;;5020345;28;20312;-75
2021/12/27 03:16:20;;;;;;;;;;;3.80;99.90;;;;;;5053795;28;19943;-75
2021/12/27 03:18:49;;;;;;;;;;;3.80;99.90;;;;;;5053432;28;20015;-75
2021/12/27 03:21:16;;;;;;;;;;;3.80;99.90;;;;;;5053861;28;20420;-75
2021/12/27 03:23:43;;;;;;;;;;;3.80;99.90;;;;;;5020582;28;19924;-75
2021/12/27 03:26:10;;;;;;;;;;;3.80;99.90;;;;;;5037018;28;19956;-75
2021/12/27 03:28:37;;;;;;;;;;;3.80;99.90;;;;;;5036967;28;19927;-75
2021/12/27 03:31:04;;;;;;;;;;;3.80;99.90;;;;;;5036908;28;20021;-75
2021/12/27 03:33:31;;;;;;;;;;;3.70;99.90;;;;;;5054491;28;19942;-75
2021/12/27 03:38:37;;;;;;;;;;;3.70;99.90;;;;;;5053660;28;19921;-75
2021/12/27 03:41:13;;;;;;;;;;;3.70;99.90;;;;;;5037099;28;19925;-75
2021/12/27 03:43:45;;;;;;;;;;;3.80;99.90;;;;;;5036936;28;19921;-75
2021/12/27 03:46:12;;;;;;;;;;;4.00;99.90;;;;;;5052752;28;20016;-75
2021/12/27 03:48:38;;;;;;;;;;;4.20;99.90;;;;;;5053684;28;20031;-75
2021/12/27 03:51:10;;;;;;;;;;;4.40;99.90;;;;;;5036040;28;20015;-75
2021/12/27 03:53:37;;;;;;;;;;;4.50;99.90;;;;;;5053947;28;20341;-75
2021/12/27 03:56:09;;;;;;;;;;;4.60;99.90;;;;;;5035992;28;19931;-75
2021/12/27 03:58:58;;;;;;;;;;;4.60;99.90;;;;;;5052780;28;20011;-75
2021/12/27 04:01:31;;;;;;;;;;;4.60;99.90;;;;;;5036752;28;19920;-75
2021/12/27 04:04:03;;;;;;;;;;;4.80;99.90;;;;;;5019971;28;20023;-75
2021/12/27 04:06:29;;;;;;;;;;;4.90;99.90;;;;;;5035512;28;19920;-75
2021/12/27 04:08:56;;;;;;;;;;;4.90;99.90;;;;;;5019128;28;20446;-75
2021/12/27 04:11:23;;;;;;;;;;;5.00;99.90;;;;;;5036018;28;20374;-75
2021/12/27 04:13:50;;;;;;;;;;;5.00;99.90;;;;;;5019148;28;19967;-75
2021/12/27 04:16:16;;;;;;;;;;;5.00;99.90;;;;;;5035814;28;19920;-75
2021/12/27 04:18:43;;;;;;;;;;;5.10;99.90;;;;;;5035622;28;20452;-75
2021/12/27 04:21:10;;;;;;;;;;;5.10;99.90;;;;;;5019303;28;19966;-75
2021/12/27 04:23:41;;;;;;;;;;;5.20;99.90;;;;;;5035516;28;19920;-75
2021/12/27 04:26:08;;;;;;;;;;;5.10;99.90;;;;;;5034994;28;19931;-75
2021/12/27 04:28:40;;;;;;;;;;;5.20;99.90;;;;;;5019899;28;19924;-75
2021/12/27 04:31:06;;;;;;;;;;;5.20;99.90;;;;;;5035674;28;20039;-75
2021/12/27 04:33:33;;;;;;;;;;;5.20;99.90;;;;;;5053113;28;19921;-75
2021/12/27 04:36:00;;;;;;;;;;;5.30;99.90;;;;;;5035347;28;19943;-75
2021/12/27 04:38:31;;;;;;;;;;;5.30;99.90;;;;;;5035576;28;19920;-75
2021/12/27 04:40:58;;;;;;;;;;;5.30;99.90;;;;;;5035399;28;20512;-75
2021/12/27 04:43:25;;;;;;;;;;;5.30;99.90;;;;;;5019184;28;20288;-75
2021/12/27 04:45:56;;;;;;;;;;;5.30;99.90;;;;;;5019797;28;19920;-75
2021/12/27 04:48:28;;;;;;;;;;;5.30;99.90;;;;;;5019533;28;20217;-75
2021/12/27 04:50:55;;;;;;;;;;;5.30;99.90;;;;;;5018597;28;20028;-75
2021/12/27 04:53:22;;;;;;;;;;;5.30;99.90;;;;;;5018405;28;19927;-75
2021/12/27 04:55:53;;;;;;;;;;;5.30;99.90;;;;;;5052586;28;20391;-75
2021/12/27 04:58:25;;;;;;;;;;;5.40;99.90;;;;;;5019320;28;19921;-75
2021/12/27 05:00:53;;;;;;;;;;;5.40;99.90;;;;;;5018367;28;20452;-75
2021/12/27 05:03:25;;;;;;;;;;;5.40;99.90;;;;;;5033822;28;20371;-75
2021/12/27 05:05:51;;;;;;;;;;;5.30;99.90;;;;;;5051959;28;20016;-75
2021/12/27 05:08:23;;;;;;;;;;;5.30;99.90;;;;;;5034465;28;20367;-75
2021/12/27 05:10:49;;;;;;;;;;;5.30;99.90;;;;;;5034337;28;20023;-75
2021/12/27 05:13:21;;;;;;;;;;;5.30;99.90;;;;;;5018400;28;19920;-75
2021/12/27 05:15:48;;;;;;;;;;;5.40;99.90;;;;;;5017907;28;20032;-75
2021/12/27 05:18:15;;;;;;;;;;;5.40;99.90;;;;;;5033831;28;19979;-75
2021/12/27 05:20:42;;;;;;;;;;;5.30;99.90;;;;;;5051928;28;20014;-75
2021/12/27 05:23:17;;;;;;;;;;;5.30;99.90;;;;;;5034235;28;20357;-75
2021/12/27 05:25:44;;;;;;;;;;;5.30;99.90;;;;;;5017742;28;19974;-75
2021/12/27 05:28:13;;;;;;;;;;;5.30;99.90;;;;;;5050566;28;20573;-75
2021/12/27 05:30:48;;;;;;;;;;;5.20;99.90;;;;;;5052024;28;19927;-75
2021/12/27 05:33:15;;;;;;;;;;;5.20;99.90;;;;;;5033680;28;20373;-75
2021/12/27 05:35:43;;;;;;;;;;;5.20;99.90;;;;;;5052503;28;19975;-75
2021/12/27 05:38:10;;;;;;;;;;;5.20;99.90;;;;;;5038781;28;19964;-75
2021/12/27 05:40:37;;;;;;;;;;;5.30;99.90;;;;;;5022072;28;19963;-75
2021/12/27 05:43:06;;;;;;;;;;;5.20;99.90;;;;;;5021704;28;20015;-75
2021/12/27 05:45:39;;;;;;;;;;;5.20;99.90;;;;;;5038519;28;19929;-75
2021/12/27 05:48:06;;;;;;;;;;;5.20;99.90;;;;;;5038459;28;20351;-75
2021/12/27 05:50:39;;;;;;;;;;;5.20;99.90;;;;;;5055238;28;19971;-75
2021/12/27 05:53:05;;;;;;;;;;;5.20;99.90;;;;;;5022121;28;19921;-75
2021/12/27 05:55:32;;;;;;;;;;;5.20;99.90;;;;;;5039209;28;20349;-76
2021/12/27 05:58:00;;;;;;;;;;;5.10;99.90;;;;;;5038312;28;20400;-75
2021/12/27 06:00:28;;;;;;;;;;;5.10;99.90;;;;;;5054804;28;19925;-75
2021/12/27 06:02:55;;;;;;;;;;;5.10;99.90;;;;;;5034058;28;19955;-75
2021/12/27 06:05:23;;;;;;;;;;;5.10;99.90;;;;;;5030128;28;20397;-75
2021/12/27 06:07:50;;;;;;;;;;;5.00;99.90;;;;;;5035836;28;19925;-75
2021/12/27 06:10:18;;;;;;;;;;;5.00;99.90;;;;;;5037254;28;19967;-75
2021/12/27 06:12:50;;;;;;;;;;;5.00;99.90;;;;;;5038300;28;19921;-75
2021/12/27 06:15:22;;;;;;;;;;;4.90;99.90;;;;;;5037551;28;19959;-75
2021/12/27 06:17:48;;;;;;;;;;;4.90;99.90;;;;;;5055175;28;19920;-75
2021/12/27 06:20:20;;;;;;;;;;;4.90;99.90;;;;;;5037340;28;20294;-76
2021/12/27 06:22:51;;;;;;;;;;;4.80;99.90;;;;;;5035969;28;20391;-76
2021/12/27 06:25:18;;;;;;;;;;;4.80;99.90;;;;;;5054273;28;19933;-74
2021/12/27 06:27:44;;;;;;;;;;;4.80;99.90;;;;;;5051136;28;19952;-75
2021/12/27 06:30:13;;;;;;;;;;;4.70;99.90;;;;;;5017216;28;19924;-76
2021/12/27 06:32:40;;;;;;;;;;;4.70;99.90;;;;;;5032583;28;19925;-76
2021/12/27 06:35:10;;;;;;;;;;;4.60;99.90;;;;;;5035718;28;19925;-76
2021/12/27 06:37:39;;;;;;;;;;;4.50;99.90;;;;;;5021046;28;19975;-76
2021/12/27 06:40:11;;;;;;;;;;;4.40;99.90;;;;;;5051746;28;19925;-75
2021/12/27 06:42:38;;;;;;;;;;;4.40;99.90;;;;;;5010787;28;19975;-77
2021/12/27 06:45:10;;;;;;;;;;;4.30;99.90;;;;;;5017701;28;19944;-76
2021/12/27 06:47:47;;;;;;;;;;;4.30;99.90;;;;;;5031689;28;20370;-75
2021/12/27 06:50:19;;;;;;;;;;;4.20;99.90;;;;;;5032654;28;19920;-76
2021/12/27 06:52:46;;;;;;;;;;;4.10;99.90;;;;;;5031967;28;19960;-76
2021/12/27 06:55:13;;;;;;;;;;;4.00;99.90;;;;;;5035231;28;19983;-76
2021/12/27 06:57:40;;;;;;;;;;;4.00;99.90;;;;;;5032194;28;19931;-75
2021/12/27 07:00:12;;;;;;;;;;;3.90;99.90;;;;;;5036418;28;20300;-75
2021/12/27 07:02:41;;;;;;;;;;;3.90;99.90;;;;;;5036418;28;19921;-76
2021/12/27 07:05:14;;;;;;;;;;;3.90;99.90;;;;;;5032170;28;19968;-76
2021/12/27 07:07:40;;;;;;;;;;;3.90;99.90;;;;;;5047977;28;19943;-75
2021/12/27 07:10:09;;;;;;;;;;;3.90;99.90;;;;;;5035351;28;20003;-76
2021/12/27 07:12:40;;;;;;;;;;;3.80;99.90;;;;;;5035589;28;19921;-75
2021/12/27 07:15:12;;;;;;;;;;;3.80;99.90;;;;;;5034980;28;19927;-75
2021/12/27 07:17:39;;;;;;;;;;;3.80;99.90;;;;;;5053228;28;19999;-76
2021/12/27 07:20:06;;;;;;;;;;;3.90;99.90;;;;;;5019084;28;20030;-75
2021/12/27 07:22:33;;;;;;;;;;;3.80;99.90;;;;;;5051586;28;19927;-76
2021/12/27 07:25:05;;;;;;;;;;;3.80;99.90;;;;;;5034128;28;19920;-75
2021/12/27 07:27:37;;;;;;;;;;;3.80;99.90;;;;;;5034943;28;20007;-76
2021/12/27 07:30:12;;;;;;;;;;;3.80;99.90;;;;;;5035035;28;19921;-75
2021/12/27 07:32:47;;;;;;;;;;;3.70;99.90;;;;;;5034538;28;19943;-76
2021/12/27 07:35:17;;;;;;;;;;;3.70;99.90;;;;;;5034854;28;19928;-76
2021/12/27 07:37:52;;;;;;;;;;;3.70;99.90;;;;;;5018874;28;19921;-75
2021/12/27 07:40:29;;;;;;;;;;;3.60;99.90;;;;;;5019557;28;19921;-75
2021/12/27 07:43:02;;;;;;;;;;;3.60;99.90;;;;;;5034083;28;19920;-75
2021/12/27 07:45:38;;;;;;;;;;;3.50;99.90;;;;;;5036110;28;19921;-76
2021/12/27 07:48:12;;;;;;;;;;;3.50;99.90;;;;;;5019284;28;19928;-75
2021/12/27 07:50:47;;;;;;;;;;;3.40;99.90;;;;;;5034681;28;20396;-75
2021/12/27 07:53:15;;;;;;;;;;;3.40;99.90;;;;;;5033741;28;19929;-76
2021/12/27 07:55:49;;;;;;;;;;;3.30;99.90;;;;;;5051148;28;19921;-76
2021/12/27 07:58:23;;;;;;;;;;;3.20;99.90;;;;;;5034100;28;20046;-76
2021/12/27 08:00:56;;;;;;;;;;;3.20;99.90;;;;;;5034167;28;20343;-75
2021/12/27 08:03:29;;;;;;;;;;;3.30;99.90;;;;;;5051816;28;19924;-75
2021/12/27 08:06:04;;;;;;;;;;;3.20;99.90;;;;;;5051268;28;19975;-75
2021/12/27 08:08:31;;;;;;;;;;;3.20;99.90;;;;;;5035062;28;19963;-75
2021/12/27 08:11:03;;;;;;;;;;;3.20;99.90;;;;;;5035702;28;19920;-75
2021/12/27 08:13:35;;;;;;;;;;;3.20;99.90;;;;;;5034571;28;19924;-75
2021/12/27 08:16:09;;;;;;;;;;;3.20;99.90;;;;;;5052000;28;19924;-75
2021/12/27 08:18:42;;;;;;;;;;;3.20;99.90;;;;;;5035562;28;19963;-75
2021/12/27 08:21:09;;;;;;;;;;;3.20;99.90;;;;;;5034402;28;19920;-76
2021/12/27 08:23:36;;;;;;;;;;;3.20;99.90;;;;;;5034117;28;19927;-76
2021/12/27 08:26:03;;;;;;;;;;;3.20;99.90;;;;;;5052631;28;20011;-75
2021/12/27 08:28:30;;;;;;;;;;;3.30;99.90;;;;;;5034453;28;19975;-75
2021/12/27 08:30:57;;;;;;;;;;;3.30;99.90;;;;;;5027387;28;19921;-75
2021/12/27 08:33:23;;;;;;;;;;;3.30;99.90;;;;;;5034060;28;19987;-75
2021/12/27 08:35:50;;;;;;;;;;;3.30;99.90;;;;;;5051194;28;20395;-75
2021/12/27 08:38:22;;;;;;;;;;;3.30;99.90;;;;;;5035038;28;19956;-75
2021/12/27 08:40:54;;;;;;;;;;;3.30;99.90;;;;;;5052388;28;19943;-75
2021/12/27 08:43:25;;;;;;;;;;;3.30;99.90;;;;;;5018179;28;20007;-75
2021/12/27 08:45:53;;;;;;;;;;;3.30;99.90;;;;;;5033489;28;19978;-75
2021/12/27 08:48:20;;;;;;;;;;;3.30;99.90;;;;;;5030518;28;20013;-75
2021/12/27 08:50:47;;;;;;;;;;;3.40;99.90;;;;;;5021573;28;19988;-75
2021/12/27 08:53:18;;;;;;;;;;;3.40;99.90;;;;;;5039635;28;19983;-75
2021/12/27 08:55:50;;;;;;;;;;;3.40;99.90;;;;;;5033113;28;19924;-75
2021/12/27 08:58:22;;;;;;;;;;;3.50;99.90;;;;;;5033936;28;19970;-75
2021/12/27 09:00:49;;;;;;;;;;;3.50;99.90;;;;;;5029289;28;20348;-75
2021/12/27 09:03:16;;;;;;;;;;;3.50;99.90;;;;;;5036531;28;20011;-75
2021/12/27 09:05:48;;;;;;;;;;;3.50;99.90;;;;;;5030603;28;20407;-76
2021/12/27 09:08:15;;;;;;;;;;;3.60;99.90;;;;;;5014538;28;19929;-77
2021/12/27 09:10:42;;;;;;;;;;;3.70;99.90;;;;;;5049668;28;19925;-76
2021/12/27 09:13:08;;;;;;;;;;;3.80;99.90;;;;;;5045505;28;20011;-75
2021/12/27 09:15:35;;;;;;;;;;;3.80;99.90;;;;;;5048960;28;20360;-76
2021/12/27 09:18:08;;;;;;;;;;;3.90;99.90;;;;;;5017562;28;19975;-76
2021/12/27 09:20:34;;;;;;;;;;;4.00;99.90;;;;;;5033727;28;19924;-76
2021/12/27 09:23:06;;;;;;;;;;;4.10;99.90;;;;;;5031574;28;19920;-75
2021/12/27 09:25:38;;;;;;;;;;;4.10;99.90;;;;;;5031895;28;19924;-76
2021/12/27 09:28:04;;;;;;;;;;;4.10;99.90;;;;;;5040177;28;20466;-75
2021/12/27 09:30:37;;;;;;;;;;;4.10;99.90;;;;;;5032968;28;20372;-76
2021/12/27 09:33:04;;;;;;;;;;;4.10;99.90;;;;;;5015719;28;20418;-77
2021/12/27 09:35:33;;;;;;;;;;;4.00;99.90;;;;;;5015043;28;20027;-76
2021/12/27 09:38:01;;;;;;;;;;;4.10;99.90;;;;;;5016202;28;20007;-75
2021/12/27 09:40:27;;;;;;;;;;;4.10;99.90;;;;;;5031054;28;19931;-76
2021/12/27 09:42:59;;;;;;;;;;;4.10;99.90;;;;;;5026941;28;19927;-75
2021/12/27 09:45:26;;;;;;;;;;;4.10;99.90;;;;;;5008472;28;19925;-75
2021/12/27 09:47:52;;;;;;;;;;;4.20;99.90;;;;;;5049895;28;19921;-75
2021/12/27 09:50:31;;;;;;;;;;;4.30;99.90;;;;;;5025342;28;19943;-76
2021/12/27 09:53:03;;;;;;;;;;;4.30;99.90;;;;;;5029194;28;20008;-76
2021/12/27 09:55:36;;;;;;;;;;;4.40;99.90;;;;;;5030799;28;19931;-76
2021/12/27 09:58:07;;;;;;;;;;;4.50;99.90;;;;;;5029406;28;20424;-76
2021/12/27 10:00:36;;;;;;;;;;;4.50;99.90;;;;;;5029341;28;19921;-75
2021/12/27 10:03:02;;;;;;;;;;;4.60;99.90;;;;;;5029314;28;20011;-75
2021/12/27 10:05:34;;;;;;;;;;;4.70;99.90;;;;;;5030422;28;19953;-75
2021/12/27 10:08:06;;;;;;;;;;;4.70;99.90;;;;;;5013466;28;20013;-75
2021/12/27 10:10:33;;;;;;;;;;;4.80;99.90;;;;;;5012737;28;20301;-75
2021/12/27 10:13:09;;;;;;;;;;;4.80;99.90;;;;;;5029007;28;19921;-74
2021/12/27 10:15:38;;;;;;;;;;;4.80;99.90;;;;;;5013148;28;20392;-74
2021/12/27 10:18:11;;;;;;;;;;;4.90;99.90;;;;;;5029282;28;20374;-75
2021/12/27 10:20:44;;;;;;;;;;;4.90;99.90;;;;;;5029209;28;19921;-74
2021/12/27 10:23:19;;;;;;;;;;;5.00;99.90;;;;;;5031114;28;20401;-75
2021/12/27 10:25:50;;;;;;;;;;;5.10;99.90;;;;;;5032501;28;19975;-75
2021/12/27 10:28:26;;;;;;;;;;;5.10;99.90;;;;;;5032890;28;20019;-75
2021/12/27 10:31:02;;;;;;;;;;;5.20;99.90;;;;;;5033125;28;20361;-75
2021/12/27 10:33:29;;;;;;;;;;;5.20;99.90;;;;;;5034133;28;20343;-74
2021/12/27 10:35:57;;;;;;;;;;;5.30;99.90;;;;;;5033226;28;19921;-74
2021/12/27 10:38:31;;;;;;;;;;;5.40;99.90;;;;;;5033384;28;19921;-74
2021/12/27 10:41:09;;;;;;;;;;;5.40;99.90;;;;;;5033187;28;19921;-74
2021/12/27 10:43:40;;;;;;;;;;;5.50;99.90;;;;;;5016010;28;20345;-74
2021/12/27 10:46:09;;;;;;;;;;;5.50;99.90;;;;;;5032692;28;19921;-74
2021/12/27 10:48:40;;;;;;;;;;;5.60;99.90;;;;;;5032563;28;19928;-74
2021/12/27 10:51:12;;;;;;;;;;;5.70;99.90;;;;;;5032828;28;19921;-74
2021/12/27 10:54:07;;;;;;;;;;;5.80;99.90;;;;;;5032371;28;19921;-74
2021/12/27 10:56:52;;;;;;;;;;;5.90;99.90;;;;;;5032585;28;19921;-74
2021/12/27 10:59:20;;;;;;;;;;;5.90;99.90;;;;;;5032524;28;19927;-78
2021/12/27 11:01:47;;;;;;;;;;;6.00;99.90;;;;;;5016035;28;20389;-76
2021/12/27 11:04:15;;;;;;;;;;;6.20;99.90;;;;;;5032067;28;19949;-76
2021/12/27 11:06:49;;;;;;;;;;;6.40;99.90;;;;;;5048316;28;19931;-76
2021/12/27 11:09:17;;;;;;;;;;;6.40;99.90;;;;;;5035434;28;19924;-77
2021/12/27 11:11:49;;;;;;;;;;;6.50;99.90;;;;;;5035681;28;19927;-76
2021/12/27 11:14:16;;;;;;;;;;;6.50;99.90;;;;;;5053282;28;20420;-77
2021/12/27 11:16:43;;;;;;;;;;;6.50;99.90;;;;;;5035470;28;20018;-76
2021/12/27 11:19:10;;;;;;;;;;;6.50;99.90;;;;;;5035093;28;20023;-76
2021/12/27 11:21:37;;;;;;;;;;;6.50;99.90;;;;;;5052321;28;20387;-77
2021/12/27 11:24:05;;;;;;;;;;;6.60;99.90;;;;;;5052949;28;20383;-78
2021/12/27 11:26:33;;;;;;;;;;;6.60;99.90;;;;;;5042020;28;20007;-76
2021/12/27 11:29:14;;;;;;;;;;;6.70;99.90;;;;;;5031736;28;19927;-76
2021/12/27 11:31:45;;;;;;;;;;;6.80;99.90;;;;;;5034598;28;20274;-76
2021/12/27 11:34:18;;;;;;;;;;;6.90;99.90;;;;;;5046979;28;19921;-77
2021/12/27 11:36:55;;;;;;;;;;;7.00;99.90;;;;;;5027664;28;19964;-76
2021/12/27 11:39:32;;;;;;;;;;;7.00;99.90;;;;;;5019488;28;20015;-76
2021/12/27 11:41:58;;;;;;;;;;;7.10;99.90;;;;;;5035228;28;20407;-76
2021/12/27 11:44:35;;;;;;;;;;;7.10;99.90;;;;;;5035316;28;19920;-76
2021/12/27 11:47:02;;;;;;;;;;;7.20;99.90;;;;;;5034716;28;19968;-76
2021/12/27 11:49:31;;;;;;;;;;;7.20;99.90;;;;;;5034385;28;20011;-76
2021/12/27 11:52:17;;;;;;;;;;;7.30;99.90;;;;;;5034995;28;19920;-77
2021/12/27 11:54:48;;;;;;;;;;;7.40;99.90;;;;;;5033841;28;20023;-76
2021/12/27 11:57:33;;;;;;;;;;;7.40;99.90;;;;;;5034005;28;20022;-77
2021/12/27 12:00:26;;;;;;;;;;;7.40;99.90;;;;;;5034354;28;20011;-76
2021/12/27 12:03:01;;;;;;;;;;;7.50;99.90;;;;;;5020332;28;19925;-76
2021/12/27 12:05:43;;;;;;;;;;;7.50;99.90;;;;;;5050904;28;19920;-76
2021/12/27 12:08:14;;;;;;;;;;;7.50;99.90;;;;;;5034143;28;19945;-76
2021/12/27 12:10:55;;;;;;;;;;;7.50;99.90;;;;;;5034387;28;20011;-76
2021/12/27 12:13:27;;;;;;;;;;;7.50;99.90;;;;;;5035027;28;19927;-76
2021/12/27 12:15:58;;;;;;;;;;;7.50;99.90;;;;;;5047609;28;19963;-77
2021/12/27 12:18:25;;;;;;;;;;;7.50;99.90;;;;;;5026905;28;19959;-76
2021/12/27 12:20:57;;;;;;;;;;;7.50;99.90;;;;;;5034976;28;19972;-76
2021/12/27 12:23:24;;;;;;;;;;;7.50;99.90;;;;;;5033309;28;20015;-77
2021/12/27 12:25:58;;;;;;;;;;;7.50;99.90;;;;;;5055607;28;20007;-76
2021/12/27 12:28:25;;;;;;;;;;;7.50;99.90;;;;;;5050020;28;19970;-75
2021/12/27 12:30:52;;;;;;;;;;;7.50;99.90;;;;;;5031590;28;19925;-76
2021/12/27 12:33:26;;;;;;;;;;;7.50;99.90;;;;;;5033303;28;19921;-76
2021/12/27 12:35:56;;;;;;;;;;;7.60;99.90;;;;;;5034049;28;19970;-76
2021/12/27 12:38:24;;;;;;;;;;;7.60;99.90;;;;;;5034020;28;19924;-76
2021/12/27 12:41:00;;;;;;;;;;;7.70;99.90;;;;;;5033659;28;20004;-76
2021/12/27 12:43:34;;;;;;;;;;;7.70;99.90;;;;;;5051181;28;20378;-76
2021/12/27 12:46:12;;;;;;;;;;;7.70;99.90;;;;;;5034168;28;20007;-76
2021/12/27 12:48:44;;;;;;;;;;;7.70;99.90;;;;;;5034308;28;19942;-76
2021/12/27 12:51:11;;;;;;;;;;;7.70;99.90;;;;;;5051687;28;20303;-75
2021/12/27 12:53:38;;;;;;;;;;;7.70;99.90;;;;;;5050649;28;19920;-76
2021/12/27 12:56:09;;;;;;;;;;;7.70;99.90;;;;;;5034556;28;19927;-76
2021/12/27 12:58:41;;;;;;;;;;;7.70;99.90;;;;;;5033653;28;19920;-76
2021/12/27 13:01:09;;;;;;;;;;;7.70;99.90;;;;;;5033709;28;20459;-76
2021/12/27 13:03:44;;;;;;;;;;;7.70;99.90;;;;;;5033859;28;20015;-76
2021/12/27 13:06:11;;;;;;;;;;;7.70;99.90;;;;;;5032813;28;20015;-75
2021/12/27 13:08:56;;;;;;;;;;;7.70;99.90;;;;;;5033405;28;19927;-76
2021/12/27 13:11:23;;;;;;;;;;;7.70;99.90;;;;;;5067379;28;19920;-75
2021/12/27 13:13:57;;;;;;;;;;;7.60;99.90;;;;;;5033235;28;19924;-76
2021/12/27 13:16:26;;;;;;;;;;;7.60;99.90;;;;;;5016538;28;19921;-76
2021/12/27 13:19:06;;;;;;;;;;;7.60;99.90;;;;;;5033424;28;19920;-76
2021/12/27 13:21:33;;;;;;;;;;;7.60;99.90;;;;;;5049910;28;20031;-75
2021/12/27 13:24:03;;;;;;;;;;;7.60;99.90;;;;;;5032994;28;19965;-76
2021/12/27 13:26:36;;;;;;;;;;;7.60;99.90;;;;;;5032618;28;19927;-75
2021/12/27 13:29:02;;;;;;;;;;;7.50;99.90;;;;;;5016969;28;20019;-76
2021/12/27 13:31:34;;;;;;;;;;;7.50;99.90;;;;;;5017626;28;19920;-76
2021/12/27 13:34:06;;;;;;;;;;;7.40;99.90;;;;;;5033060;28;19924;-76
2021/12/27 13:36:40;;;;;;;;;;;7.40;99.90;;;;;;5033115;28;19927;-76
2021/12/27 13:39:15;;;;;;;;;;;7.40;99.90;;;;;;5033377;28;20015;-76
2021/12/27 13:41:49;;;;;;;;;;;7.40;99.90;;;;;;5034215;28;19943;-75
2021/12/27 13:44:29;;;;;;;;;;;7.40;99.90;;;;;;5032767;28;19970;-75
2021/12/27 13:46:57;;;;;;;;;;;7.40;99.90;;;;;;5033364;28;20292;-76
2021/12/27 13:49:29;;;;;;;;;;;7.40;99.90;;;;;;5034329;28;19964;-76
2021/12/27 13:51:56;;;;;;;;;;;7.40;99.90;;;;;;5033154;28;19920;-76
2021/12/27 13:54:40;;;;;;;;;;;7.40;99.90;;;;;;5050727;28;19920;-75
2021/12/27 13:57:12;;;;;;;;;;;7.40;99.90;;;;;;5035251;28;19963;-76
2021/12/27 13:59:46;;;;;;;;;;;7.30;99.90;;;;;;5054863;28;20016;-76
2021/12/27 14:02:13;;;;;;;;;;;7.30;99.90;;;;;;5037195;28;19929;-76
2021/12/27 14:04:39;;;;;;;;;;;7.30;99.90;;;;;;5054182;28;19921;-76
2021/12/27 14:07:08;;;;;;;;;;;7.30;99.90;;;;;;5036553;28;20353;-76
2021/12/27 14:09:40;;;;;;;;;;;7.30;99.90;;;;;;5036738;28;19921;-76
2021/12/27 14:12:18;;;;;;;;;;;7.20;99.90;;;;;;5036778;28;19924;-76
2021/12/27 14:14:50;;;;;;;;;;;7.20;99.90;;;;;;5054412;28;20038;-76
2021/12/27 14:17:26;;;;;;;;;;;7.10;99.90;;;;;;5036698;28;20295;-76
2021/12/27 14:20:00;;;;;;;;;;;7.10;99.90;;;;;;5036559;28;20008;-75
2021/12/27 14:22:42;;;;;;;;;;;7.10;99.90;;;;;;5037022;28;19956;-75
2021/12/27 14:25:18;;;;;;;;;;;7.00;99.90;;;;;;5054154;28;19921;-76
2021/12/27 14:27:55;;;;;;;;;;;7.00;99.90;;;;;;5037466;28;19921;-75
2021/12/27 14:30:30;;;;;;;;;;;6.90;99.90;;;;;;5019780;28;19924;-75
2021/12/27 14:32:57;;;;;;;;;;;6.90;99.90;;;;;;5035867;28;20003;-75
2021/12/27 14:35:37;;;;;;;;;;;6.80;99.90;;;;;;5037244;28;20012;-76
2021/12/27 14:38:24;;;;;;;;;;;6.80;99.90;;;;;;5036299;28;20373;-76
2021/12/27 14:41:02;;;;;;;;;;;6.80;99.90;;;;;;5036368;28;19920;-75
2021/12/27 14:43:33;;;;;;;;;;;6.70;99.90;;;;;;5036391;28;19921;-76
2021/12/27 14:46:04;;;;;;;;;;;6.70;99.90;;;;;;5038145;28;19928;-75
2021/12/27 14:48:31;;;;;;;;;;;6.60;99.90;;;;;;5036932;28;19927;-76
2021/12/27 14:51:03;;;;;;;;;;;6.60;99.90;;;;;;5036766;28;19921;-76
2021/12/27 14:53:35;;;;;;;;;;;6.50;99.90;;;;;;5036816;28;20299;-76
2021/12/27 14:56:02;;;;;;;;;;;6.50;99.90;;;;;;5020186;28;20004;-75
2021/12/27 14:58:29;;;;;;;;;;;6.50;99.90;;;;;;5019747;28;20292;-76